createdAt,value
2022-10-05T00:00:58.895Z,11.18
2022-10-05T00:03:36.765Z,10.15
2022-10-05T00:06:03.397Z,8.60
2022-10-05T00:08:32.702Z,9.68
2022-10-05T00:10:59.571Z,9.70
2022-10-05T00:13:28.845Z,10.90
2022-10-05T00:16:12.139Z,8.77
2022-10-05T00:18:39.350Z,7.72
2022-10-05T00:21:24.104Z,8.90
2022-10-05T00:23:51.768Z,8.82
2022-10-05T00:26:22.798Z,8.57
2022-10-05T00:28:50.148Z,10.32
2022-10-05T00:31:24.999Z,11.10
2022-10-05T00:33:51.583Z,9.57
2022-10-05T00:36:18.902Z,10.32
2022-10-05T00:38:45.722Z,9.57
2022-10-05T00:41:20.902Z,11.15
2022-10-05T00:44:18.196Z,7.80
2022-10-05T00:47:04.359Z,11.45
2022-10-05T00:49:49.286Z,9.00
2022-10-05T00:52:28.300Z,11.38
2022-10-05T00:54:59.829Z,7.68
2022-10-05T00:57:31.480Z,9.20
2022-10-05T01:00:06.493Z,10.98
2022-10-05T01:02:54.554Z,10.23
2022-10-05T01:05:45.800Z,11.20
2022-10-05T01:08:27.380Z,9.02
2022-10-05T01:11:21.144Z,11.18
2022-10-05T01:13:59.525Z,9.02
2022-10-05T01:16:39.005Z,10.75
2022-10-05T01:19:16.410Z,9.35
2022-10-05T01:21:57.021Z,12.30
2022-10-05T01:25:02.243Z,9.98
2022-10-05T01:27:46.931Z,10.40
2022-10-05T01:30:17.086Z,12.90
2022-10-05T01:32:43.421Z,9.38
2022-10-05T01:35:34.561Z,9.95
2022-10-05T01:38:25.090Z,8.45
2022-10-05T01:41:19.560Z,9.73
2022-10-05T01:43:58.203Z,9.95
2022-10-05T01:47:00.315Z,11.15
2022-10-05T01:49:38.061Z,10.02
2022-10-05T01:52:13.559Z,9.48
2022-10-05T01:55:07.898Z,12.73
2022-10-05T01:57:52.336Z,9.45
2022-10-05T02:00:20.120Z,12.65
2022-10-05T02:02:57.227Z,10.40
2022-10-05T02:05:36.149Z,14.30
2022-10-05T02:08:13.680Z,9.63
2022-10-05T02:11:09.429Z,15.32
2022-10-05T02:13:47.381Z,8.75
2022-10-05T02:16:20.749Z,11.68
2022-10-05T02:18:53.827Z,11.15
2022-10-05T02:21:21.817Z,12.07
2022-10-05T02:23:53.464Z,12.52
2022-10-05T02:26:21.148Z,11.77
2022-10-05T02:28:57.849Z,11.00
2022-10-05T02:31:37.901Z,12.73
2022-10-05T02:34:30.682Z,11.27
2022-10-05T02:37:07.334Z,12.50
2022-10-05T02:39:51.056Z,10.30
2022-10-05T02:42:33.194Z,9.75
2022-10-05T02:45:27.341Z,13.77
2022-10-05T02:48:07.630Z,12.20
2022-10-05T02:50:48.890Z,10.43
2022-10-05T02:53:28.611Z,9.77
2022-10-05T02:56:13.725Z,11.48
2022-10-05T02:59:08.413Z,11.85
2022-10-05T03:01:47.912Z,11.77
2022-10-05T03:04:23.634Z,12.68
2022-10-05T03:07:11.896Z,9.27
2022-10-05T03:09:45.118Z,9.13
2022-10-05T03:12:25.684Z,13.05
2022-10-05T03:15:10.210Z,12.23
2022-10-05T03:17:51.245Z,10.20
2022-10-05T03:20:26.787Z,8.73
2022-10-05T03:22:58.282Z,12.20
2022-10-05T03:25:39.589Z,8.52
2022-10-05T03:30:55.009Z,11.07
2022-10-05T03:33:30.364Z,13.95
2022-10-05T03:36:32.905Z,10.20
2022-10-05T03:39:20.559Z,9.57
2022-10-05T03:42:04.016Z,14.68
2022-10-05T03:44:39.129Z,12.48
2022-10-05T03:47:15.065Z,11.52
2022-10-05T03:49:56.641Z,10.77
2022-10-05T03:52:39.300Z,11.27
2022-10-05T03:55:17.884Z,12.45
2022-10-05T03:57:46.671Z,12.48
2022-10-05T04:00:19.748Z,10.07
2022-10-05T04:03:04.904Z,12.25
2022-10-05T04:05:46.490Z,11.98
2022-10-05T04:08:29.437Z,8.63
2022-10-05T04:11:00.481Z,9.32
2022-10-05T04:13:57.893Z,10.45
2022-10-05T04:16:53.414Z,9.20
2022-10-05T04:19:34.446Z,10.93
2022-10-05T04:22:12.283Z,14.00
2022-10-05T04:24:58.388Z,10.27
2022-10-05T04:27:35.852Z,12.93
2022-10-05T04:30:12.370Z,12.98
2022-10-05T04:32:57.344Z,11.32
2022-10-05T04:35:50.048Z,11.98
2022-10-05T04:38:42.918Z,11.50
2022-10-05T04:41:18.583Z,11.18
2022-10-05T04:43:57.156Z,9.98
2022-10-05T04:46:42.587Z,11.10
2022-10-05T04:49:47.721Z,10.02
2022-10-05T04:52:16.973Z,8.18
2022-10-05T04:54:55.369Z,10.30
2022-10-05T04:57:35.374Z,9.30
2022-10-05T05:00:05.600Z,8.85
2022-10-05T05:02:51.615Z,10.48
2022-10-05T05:06:17.963Z,12.13
2022-10-05T05:09:27.695Z,10.98
2022-10-05T05:12:14.825Z,11.35
2022-10-05T05:14:50.257Z,9.52
2022-10-05T05:17:31.983Z,11.35
2022-10-05T05:20:22.753Z,10.15
2022-10-05T05:23:12.798Z,10.95
2022-10-05T05:25:52.430Z,9.25
2022-10-05T05:28:39.045Z,11.40
2022-10-05T05:31:16.911Z,13.90
2022-10-05T05:34:03.947Z,10.55
2022-10-05T05:36:47.783Z,10.55
2022-10-05T05:39:29.037Z,12.15
2022-10-05T05:42:17.562Z,8.75
2022-10-05T05:44:49.731Z,11.05
2022-10-05T05:47:20.703Z,10.95
2022-10-05T05:49:47.106Z,6.70
2022-10-05T05:52:24.326Z,6.90
2022-10-05T05:55:04.798Z,9.18
2022-10-05T05:57:39.124Z,9.33
2022-10-05T06:00:14.698Z,8.15
2022-10-05T06:02:57.686Z,11.27
2022-10-05T06:05:30.528Z,7.75
2022-10-05T06:08:01.231Z,6.18
2022-10-05T06:10:41.332Z,5.70
2022-10-05T06:13:17.965Z,8.07
2022-10-05T06:16:26.425Z,6.18
2022-10-05T06:18:59.140Z,8.82
2022-10-05T06:21:42.070Z,8.30
2022-10-05T06:24:22.136Z,6.05
2022-10-05T06:27:33.865Z,8.88
2022-10-05T06:30:06.800Z,8.52
2022-10-05T06:32:45.610Z,8.07
2022-10-05T06:35:33.326Z,8.55
2022-10-05T06:38:24.627Z,8.40
2022-10-05T06:41:15.575Z,8.32
2022-10-05T06:43:58.907Z,7.03
2022-10-05T06:46:25.167Z,4.35
2022-10-05T06:49:31.169Z,8.00
2022-10-05T06:52:06.567Z,7.20
2022-10-05T06:54:54.161Z,6.47
2022-10-05T06:57:32.686Z,8.10
2022-10-05T07:00:13.964Z,6.75
2022-10-05T07:05:41.429Z,6.38
2022-10-05T07:08:13.623Z,5.82
2022-10-05T07:11:04.437Z,6.15
2022-10-05T07:13:49.373Z,6.63
2022-10-05T07:16:36.767Z,6.82
2022-10-05T07:19:35.359Z,7.78
2022-10-05T07:22:29.327Z,5.97
2022-10-05T07:25:03.340Z,6.43
2022-10-05T07:27:35.036Z,5.90
2022-10-05T07:30:07.140Z,5.53
2022-10-05T07:33:00.083Z,5.68
2022-10-05T07:35:54.291Z,5.03
2022-10-05T07:38:32.501Z,5.47
2022-10-05T07:41:16.873Z,5.40
2022-10-05T07:44:02.420Z,4.57
2022-10-05T07:46:32.331Z,6.10
2022-10-05T07:49:18.093Z,4.75
2022-10-05T07:51:50.554Z,6.05
2022-10-05T07:54:38.054Z,6.18
2022-10-05T07:57:41.215Z,4.32
2022-10-05T08:00:20.725Z,7.95
2022-10-05T08:03:05.515Z,3.45
2022-10-05T08:05:35.445Z,6.70
2022-10-05T08:08:12.392Z,5.75
2022-10-05T08:10:55.101Z,4.70
2022-10-05T08:13:55.343Z,5.68
2022-10-05T08:16:26.744Z,6.43
2022-10-05T08:19:02.288Z,6.18
2022-10-05T08:21:36.903Z,6.30
2022-10-05T08:24:09.871Z,8.10
2022-10-05T08:26:51.750Z,17.90
2022-10-05T08:29:34.162Z,4.65
2022-10-05T08:32:11.740Z,4.80
2022-10-05T08:34:51.222Z,6.22
2022-10-05T08:37:24.610Z,3.45
2022-10-05T08:40:31.109Z,5.75
2022-10-05T08:43:36.421Z,5.82
2022-10-05T08:46:21.362Z,6.32
2022-10-05T08:48:53.907Z,4.95
2022-10-05T08:51:37.706Z,4.20
2022-10-05T08:54:28.111Z,4.15
2022-10-05T08:57:25.519Z,8.23
2022-10-05T09:00:13.778Z,8.00
2022-10-05T09:03:12.724Z,4.40
2022-10-05T09:05:48.152Z,5.43
2022-10-05T09:08:41.983Z,6.15
2022-10-05T09:11:26.164Z,9.35
2022-10-05T09:14:16.684Z,5.35
2022-10-05T09:16:52.899Z,4.20
2022-10-05T09:19:53.094Z,5.65
2022-10-05T09:22:38.235Z,5.13
2022-10-05T09:25:23.005Z,10.65
2022-10-05T09:27:57.594Z,5.47
2022-10-05T09:30:52.991Z,4.82
2022-10-05T09:33:32.637Z,5.28
2022-10-05T09:36:24.191Z,6.63
2022-10-05T09:39:35.736Z,3.85
2022-10-05T09:44:56.659Z,6.32
2022-10-05T09:47:53.810Z,4.85
2022-10-05T09:50:40.743Z,4.20
2022-10-05T09:53:40.399Z,3.03
2022-10-05T09:56:43.473Z,3.97
2022-10-05T09:59:35.880Z,4.05
2022-10-05T10:02:21.069Z,9.77
2022-10-05T10:05:20.054Z,5.45
2022-10-05T10:07:55.851Z,5.80
2022-10-05T10:10:52.726Z,2.85
2022-10-05T10:14:03.865Z,4.88
2022-10-05T10:16:46.050Z,5.50
2022-10-05T10:19:35.893Z,5.13
2022-10-05T10:22:49.999Z,4.72
2022-10-05T10:25:28.643Z,6.80
2022-10-05T10:28:13.823Z,4.80
2022-10-05T10:30:52.470Z,5.28
2022-10-05T10:33:54.692Z,2.67
2022-10-05T10:36:43.952Z,2.13
2022-10-05T10:39:50.379Z,3.30
2022-10-05T10:42:26.304Z,3.65
2022-10-05T10:45:08.115Z,3.45
2022-10-05T10:47:50.652Z,3.03
2022-10-05T10:50:33.093Z,3.50
2022-10-05T10:53:37.371Z,3.40
2022-10-05T10:56:22.616Z,4.25
2022-10-05T10:59:17.147Z,3.45
2022-10-05T11:01:49.728Z,3.55
2022-10-05T11:04:36.707Z,3.42
2022-10-05T11:07:33.921Z,3.05
2022-10-05T11:10:25.917Z,2.65
2022-10-05T11:13:09.023Z,5.05
2022-10-05T11:15:57.456Z,5.25
2022-10-05T11:18:45.276Z,2.88
2022-10-05T11:21:30.297Z,2.28
2022-10-05T11:24:38.712Z,6.70
2022-10-05T11:27:27.109Z,2.03
2022-10-05T11:29:59.090Z,2.55
2022-10-05T11:33:06.165Z,3.88
2022-10-05T11:36:03.614Z,8.55
2022-10-05T11:39:07.059Z,2.83
2022-10-05T11:42:07.683Z,2.42
2022-10-05T11:45:21.732Z,1.88
2022-10-05T11:48:07.282Z,12.07
2022-10-05T11:50:57.081Z,9.55
2022-10-05T11:53:37.479Z,3.92
2022-10-05T11:59:15.354Z,2.13
2022-10-05T12:02:08.053Z,2.25
2022-10-05T12:04:46.617Z,4.38
2022-10-05T12:07:33.529Z,3.63
2022-10-05T12:10:14.052Z,3.20
2022-10-05T12:13:05.561Z,3.03
2022-10-05T12:15:38.265Z,3.42
2022-10-05T12:18:08.850Z,3.78
2022-10-05T12:20:49.782Z,5.00
2022-10-05T12:23:33.444Z,7.05
2022-10-05T12:26:02.587Z,3.30
2022-10-05T12:28:36.153Z,3.45
2022-10-05T12:31:14.433Z,4.25
2022-10-05T12:33:54.152Z,4.82
2022-10-05T12:36:26.345Z,4.43
2022-10-05T12:39:05.621Z,4.32
2022-10-05T12:42:02.123Z,2.65
2022-10-05T12:44:49.047Z,2.08
2022-10-05T12:47:40.556Z,5.53
2022-10-05T12:50:14.112Z,1.90
2022-10-05T12:53:11.014Z,2.90
2022-10-05T12:55:56.696Z,7.18
2022-10-05T12:58:36.914Z,2.70
2022-10-05T13:01:19.574Z,1.08
2022-10-05T13:03:59.532Z,6.38
2022-10-05T13:06:53.153Z,2.97
2022-10-05T13:09:42.126Z,3.30
2022-10-05T13:12:36.095Z,1.80
2022-10-05T13:15:02.469Z,4.45
2022-10-05T13:17:39.180Z,3.10
2022-10-05T13:20:22.586Z,3.15
2022-10-05T13:23:14.080Z,10.02
2022-10-05T13:25:51.593Z,5.75
2022-10-05T13:28:25.812Z,3.33
2022-10-05T13:31:06.238Z,1.77
2022-10-05T13:33:50.795Z,5.28
2022-10-05T13:36:39.513Z,3.00
2022-10-05T13:39:22.512Z,5.35
2022-10-05T13:42:07.454Z,1.70
2022-10-05T13:44:50.605Z,1.33
2022-10-05T13:47:40.102Z,1.60
2022-10-05T13:50:17.402Z,1.85
2022-10-05T13:52:59.714Z,4.47
2022-10-05T13:55:52.154Z,2.65
2022-10-05T13:58:32.409Z,2.55
2022-10-05T14:01:02.453Z,3.58
2022-10-05T14:03:37.869Z,8.38
2022-10-05T14:06:30.571Z,2.67
2022-10-05T14:09:02.748Z,1.38
2022-10-05T14:11:34.842Z,4.88
2022-10-05T14:14:16.941Z,2.72
2022-10-05T14:17:00.392Z,4.35
2022-10-05T14:19:32.354Z,6.88
2022-10-05T14:22:02.055Z,3.40
2022-10-05T14:24:45.669Z,1.45
2022-10-05T14:27:55.216Z,3.67
2022-10-05T14:30:25.547Z,3.42
2022-10-05T14:33:05.517Z,3.92
2022-10-05T14:35:49.128Z,6.10
2022-10-05T14:38:22.966Z,1.35
2022-10-05T14:41:07.622Z,1.52
2022-10-05T14:43:34.748Z,3.92
2022-10-05T14:46:23.312Z,3.55
2022-10-05T14:49:11.980Z,2.15
2022-10-05T14:51:38.574Z,2.22
2022-10-05T14:54:25.323Z,1.88
2022-10-05T14:57:05.859Z,1.75
2022-10-05T14:59:54.775Z,1.33
2022-10-05T15:02:37.667Z,3.50
2022-10-05T15:05:18.919Z,1.92
2022-10-05T15:07:49.202Z,2.20
2022-10-05T15:10:30.563Z,1.90
2022-10-05T15:13:19.151Z,4.28
2022-10-05T15:15:56.092Z,3.45
2022-10-05T15:18:42.863Z,2.75
2022-10-05T15:21:16.609Z,1.15
2022-10-05T15:23:48.881Z,4.10
2022-10-05T15:26:27.348Z,2.80
2022-10-05T15:29:18.615Z,1.38
2022-10-05T15:31:54.708Z,3.40
2022-10-05T15:34:33.582Z,1.55
2022-10-05T15:37:11.738Z,5.63
2022-10-05T15:39:50.169Z,2.28
2022-10-05T15:42:20.238Z,1.77
2022-10-05T15:45:03.064Z,1.20
2022-10-05T15:47:45.614Z,3.97
2022-10-05T15:50:26.621Z,1.52
2022-10-05T15:55:49.971Z,3.45
2022-10-05T15:59:04.500Z,0.88
2022-10-05T16:01:30.838Z,5.10
2022-10-05T16:04:03.943Z,1.55
2022-10-05T16:06:58.025Z,3.42
2022-10-05T16:09:34.596Z,1.80
2022-10-05T16:12:18.953Z,3.00
2022-10-05T16:14:56.414Z,9.73
2022-10-05T16:17:35.122Z,1.80
2022-10-05T16:20:16.555Z,2.50
2022-10-05T16:22:59.282Z,7.90
2022-10-05T16:25:42.107Z,3.00
2022-10-05T16:28:18.994Z,1.48
2022-10-05T16:31:06.594Z,3.17
2022-10-05T16:33:54.268Z,2.95
2022-10-05T16:36:40.246Z,6.32
2022-10-05T16:39:20.366Z,3.20
2022-10-05T16:41:51.331Z,3.00
2022-10-05T16:44:30.050Z,5.47
2022-10-05T16:47:03.990Z,3.10
2022-10-05T16:49:46.863Z,1.85
2022-10-05T16:52:19.365Z,4.05
2022-10-05T16:54:51.509Z,1.45
2022-10-05T16:57:27.058Z,2.30
2022-10-05T17:00:15.554Z,2.22
2022-10-05T17:03:08.183Z,2.25
2022-10-05T17:05:44.153Z,3.78
2022-10-05T17:08:41.070Z,3.58
2022-10-05T17:11:29.070Z,1.48
2022-10-05T17:14:15.421Z,0.98
2022-10-05T17:17:00.694Z,1.75
2022-10-05T17:19:41.046Z,1.88
2022-10-05T17:22:22.602Z,1.27
2022-10-05T17:24:59.595Z,5.15
2022-10-05T17:27:52.114Z,3.05
2022-10-05T17:30:21.499Z,3.05
2022-10-05T17:33:04.555Z,4.05
2022-10-05T17:35:54.111Z,0.93
2022-10-05T17:38:35.804Z,1.20
2022-10-05T17:41:24.883Z,2.67
2022-10-05T17:44:06.724Z,1.77
2022-10-05T17:46:38.607Z,1.45
2022-10-05T17:49:43.654Z,1.67
2022-10-05T17:53:02.749Z,1.35
2022-10-05T17:55:31.825Z,3.63
2022-10-05T17:58:00.804Z,3.03
2022-10-05T18:00:40.569Z,3.20
2022-10-05T18:03:33.575Z,2.35
2022-10-05T18:06:26.205Z,3.42
2022-10-05T18:09:16.880Z,1.90
2022-10-05T18:11:44.981Z,1.23
2022-10-05T18:14:24.851Z,4.82
2022-10-05T18:17:27.855Z,2.03
2022-10-05T18:20:44.607Z,3.45
2022-10-05T18:23:10.941Z,1.70
2022-10-05T18:25:55.780Z,1.55
2022-10-05T18:28:35.982Z,2.33
2022-10-05T18:31:21.021Z,4.32
2022-10-05T18:33:59.498Z,4.28
2022-10-05T18:36:37.925Z,3.38
2022-10-05T18:39:04.598Z,2.20
2022-10-05T18:41:40.548Z,1.60
2022-10-05T18:44:30.266Z,1.90
2022-10-05T18:46:59.637Z,3.28
2022-10-05T18:49:39.614Z,2.22
2022-10-05T18:52:24.459Z,2.38
2022-10-05T18:54:59.821Z,3.08
2022-10-05T18:57:55.350Z,1.55
2022-10-05T19:00:23.476Z,2.45
2022-10-05T19:03:13.099Z,1.88
2022-10-05T19:05:51.284Z,4.47
2022-10-05T19:08:32.826Z,2.20
2022-10-05T19:11:54.826Z,2.78
2022-10-05T19:14:26.995Z,5.85
2022-10-05T19:17:13.018Z,3.33
2022-10-05T19:19:51.883Z,1.50
2022-10-05T19:22:18.272Z,3.10
2022-10-05T19:24:58.419Z,2.95
2022-10-05T19:27:32.481Z,3.25
2022-10-05T19:30:18.565Z,2.45
2022-10-05T19:32:52.730Z,1.33
2022-10-05T19:35:41.987Z,2.40
2022-10-05T19:38:32.546Z,3.10
2022-10-05T19:41:11.196Z,5.97
2022-10-05T19:43:53.382Z,3.60
2022-10-05T19:46:22.594Z,2.50
2022-10-05T19:48:52.784Z,3.13
2022-10-05T19:51:49.611Z,2.33
2022-10-05T19:54:29.732Z,2.28
2022-10-05T19:57:01.879Z,2.65
2022-10-05T19:59:31.395Z,1.80
2022-10-05T20:01:59.108Z,3.65
2022-10-05T20:04:31.535Z,1.50
2022-10-05T20:06:59.238Z,4.28
2022-10-05T20:09:25.606Z,1.92
2022-10-05T20:11:53.005Z,5.47
2022-10-05T20:14:32.893Z,3.78
2022-10-05T20:17:35.265Z,7.47
2022-10-05T20:20:24.423Z,3.05
2022-10-05T20:22:50.830Z,2.10
2022-10-05T20:25:17.182Z,3.50
2022-10-05T20:27:52.145Z,3.75
2022-10-05T20:30:24.555Z,2.70
2022-10-05T20:32:53.174Z,2.72
2022-10-05T20:35:23.502Z,6.88
2022-10-05T20:37:49.931Z,3.03
2022-10-05T20:40:18.647Z,2.55
2022-10-05T20:42:45.162Z,4.05
2022-10-05T20:45:12.791Z,4.97
2022-10-05T20:47:40.305Z,1.85
2022-10-05T20:50:09.054Z,3.15
2022-10-05T20:52:39.745Z,4.20
2022-10-05T20:55:08.736Z,4.72
2022-10-05T20:57:38.372Z,3.63
2022-10-05T21:00:05.688Z,4.55
2022-10-05T21:02:32.056Z,1.95
2022-10-05T21:04:58.447Z,1.27
2022-10-05T21:07:25.628Z,2.17
2022-10-05T21:09:52.039Z,4.75
2022-10-05T21:12:18.400Z,6.03
2022-10-05T21:14:45.296Z,1.45
2022-10-05T21:17:12.376Z,1.98
2022-10-05T21:19:39.282Z,1.15
2022-10-05T21:22:09.957Z,2.00
2022-10-05T21:24:40.706Z,0.63
2022-10-05T21:27:08.137Z,1.35
2022-10-05T21:29:35.646Z,1.92
2022-10-05T21:32:02.258Z,2.53
2022-10-05T21:34:28.763Z,0.43
2022-10-05T21:36:55.491Z,1.13
2022-10-05T21:39:21.863Z,0.50
2022-10-05T21:41:49.808Z,0.85
2022-10-05T21:44:16.593Z,0.80
2022-10-05T21:46:42.961Z,1.55
2022-10-05T21:49:09.704Z,0.65
2022-10-05T21:51:36.734Z,2.25
2022-10-05T21:54:11.516Z,3.08
2022-10-05T21:56:41.754Z,0.80
2022-10-05T21:59:12.908Z,2.70
2022-10-05T22:04:06.348Z,2.22
2022-10-05T22:06:33.734Z,1.77
2022-10-05T22:09:00.214Z,1.70
2022-10-05T22:11:27.859Z,1.88
2022-10-05T22:13:54.680Z,2.83
2022-10-05T22:16:23.825Z,2.42
2022-10-05T22:18:50.493Z,3.30
2022-10-05T22:21:17.176Z,1.67
2022-10-05T22:23:45.410Z,1.00
2022-10-05T22:26:15.815Z,3.20
2022-10-05T22:28:43.042Z,4.73
2022-10-05T22:31:10.617Z,2.58
2022-10-05T22:33:37.089Z,2.83
2022-10-05T22:36:04.634Z,6.60
2022-10-05T22:38:31.401Z,5.55
2022-10-05T22:40:57.935Z,2.90
2022-10-05T22:43:26.843Z,5.22
2022-10-05T22:45:54.208Z,3.22
2022-10-05T22:48:20.685Z,5.85
2022-10-05T22:50:47.053Z,5.30
2022-10-05T22:53:13.886Z,4.20
2022-10-05T22:55:40.494Z,3.22
2022-10-05T22:58:06.893Z,5.93
2022-10-05T23:00:56.575Z,2.90
2022-10-05T23:03:19.586Z,1.50
2022-10-05T23:05:45.939Z,3.08
2022-10-05T23:08:12.282Z,3.00
2022-10-05T23:10:38.643Z,3.45
2022-10-05T23:13:05.000Z,3.40
2022-10-05T23:15:31.366Z,5.38
2022-10-05T23:17:57.696Z,4.88
2022-10-05T23:20:24.676Z,3.08
2022-10-05T23:22:51.056Z,1.33
2022-10-05T23:25:17.790Z,4.80
2022-10-05T23:27:44.346Z,1.77
2022-10-05T23:30:12.230Z,5.65
2022-10-05T23:32:40.634Z,5.03
2022-10-05T23:35:08.614Z,4.70
2022-10-05T23:37:43.240Z,4.20
2022-10-05T23:40:12.600Z,3.78
2022-10-05T23:42:40.127Z,7.60
2022-10-05T23:45:08.421Z,2.78
2022-10-05T23:47:34.757Z,7.05
2022-10-05T23:50:01.155Z,4.65
2022-10-05T23:52:27.686Z,3.97
2022-10-05T23:54:54.035Z,7.32
2022-10-05T23:57:20.671Z,5.13
2022-10-05T23:59:50.056Z,5.65
